createdAt,value
2018-11-12T00:02:00.484Z,79.27
2018-11-12T00:04:27.943Z,79.79
2018-11-12T00:06:55.357Z,79.60
2018-11-12T00:09:22.760Z,79.59
2018-11-12T00:11:50.200Z,80.01
2018-11-12T00:14:17.611Z,80.12
2018-11-12T00:16:45.016Z,79.59
2018-11-12T00:19:12.416Z,80.12
2018-11-12T00:21:39.819Z,79.80
2018-11-12T00:24:07.472Z,80.01
2018-11-12T00:26:34.941Z,80.21
2018-11-12T00:29:02.343Z,80.00
2018-11-12T00:31:29.763Z,80.43
2018-11-12T00:33:57.177Z,80.28
2018-11-12T00:36:24.580Z,80.16
2018-11-12T00:38:51.989Z,80.19
2018-11-12T00:41:19.391Z,80.26
2018-11-12T00:43:46.820Z,80.50
2018-11-12T00:46:14.211Z,80.45
2018-11-12T00:48:41.670Z,80.69
2018-11-12T00:51:09.073Z,80.88
2018-11-12T00:53:36.476Z,80.54
2018-11-12T00:56:03.893Z,80.41
2018-11-12T00:58:31.391Z,80.57
2018-11-12T01:00:58.800Z,80.78
2018-11-12T01:03:26.208Z,80.62
2018-11-12T01:05:53.612Z,80.51
2018-11-12T01:08:21.007Z,80.87
2018-11-12T01:10:48.418Z,80.75
2018-11-12T01:13:15.812Z,80.90
2018-11-12T01:15:43.211Z,80.38
2018-11-12T01:18:10.647Z,80.63
2018-11-12T01:20:38.056Z,80.20
2018-11-12T01:23:05.448Z,79.86
2018-11-12T01:25:32.868Z,79.70
2018-11-12T01:28:00.270Z,80.12
2018-11-12T01:30:27.685Z,79.65
2018-11-12T01:32:55.088Z,79.49
2018-11-12T01:35:22.500Z,79.49
2018-11-12T01:37:49.896Z,79.34
2018-11-12T01:40:17.459Z,79.28
2018-11-12T01:42:45.189Z,79.47
2018-11-12T01:45:13.703Z,79.73
2018-11-12T01:47:41.265Z,79.29
2018-11-12T01:50:09.720Z,79.39
2018-11-12T01:52:37.112Z,79.68
2018-11-12T01:55:04.515Z,79.69
2018-11-12T01:57:31.921Z,79.82
2018-11-12T01:59:59.327Z,79.71
2018-11-12T02:02:26.729Z,79.82
2018-11-12T02:04:54.263Z,79.50
2018-11-12T02:07:21.591Z,79.96
2018-11-12T02:09:49.004Z,80.02
2018-11-12T02:12:16.403Z,79.77
2018-11-12T02:14:43.812Z,80.01
2018-11-12T02:17:11.196Z,79.96
2018-11-12T02:19:38.628Z,79.74
2018-11-12T02:22:06.028Z,79.95
2018-11-12T02:24:33.440Z,79.37
2018-11-12T02:27:01.221Z,79.92
2018-11-12T02:29:28.661Z,79.78
2018-11-12T02:31:56.068Z,79.44
2018-11-12T02:34:23.576Z,79.03
2018-11-12T02:36:51.011Z,79.18
2018-11-12T02:39:18.388Z,79.35
2018-11-12T02:41:45.807Z,79.20
2018-11-12T02:44:13.256Z,79.56
2018-11-12T02:46:40.768Z,79.46
2018-11-12T02:49:08.235Z,79.48
2018-11-12T02:51:35.593Z,79.53
2018-11-12T02:54:03.921Z,79.78
2018-11-12T02:56:31.888Z,79.36
2018-11-12T02:58:59.325Z,79.51
2018-11-12T03:01:26.737Z,80.00
2018-11-12T03:03:54.571Z,79.52
2018-11-12T03:06:22.236Z,79.82
2018-11-12T03:08:49.783Z,79.42
2018-11-12T03:11:17.385Z,79.62
2018-11-12T03:13:44.793Z,79.69
2018-11-12T03:16:12.248Z,79.72
2018-11-12T03:18:39.656Z,79.76
2018-11-12T03:21:07.184Z,79.62
2018-11-12T03:23:34.616Z,79.58
2018-11-12T03:26:02.136Z,79.34
2018-11-12T03:28:29.593Z,79.62
2018-11-12T03:30:56.992Z,79.10
2018-11-12T03:33:24.400Z,79.56
2018-11-12T03:35:51.805Z,79.40
2018-11-12T03:38:19.213Z,79.06
2018-11-12T03:40:46.636Z,78.76
2018-11-12T03:43:14.108Z,79.07
2018-11-12T03:45:41.520Z,78.89
2018-11-12T03:48:08.920Z,78.93
2018-11-12T03:50:36.331Z,79.12
2018-11-12T03:53:03.753Z,79.01
2018-11-12T03:55:31.152Z,79.05
2018-11-12T03:57:58.557Z,78.45
2018-11-12T04:00:30.639Z,79.01
2018-11-12T04:02:57.993Z,78.95
2018-11-12T04:05:25.405Z,78.71
2018-11-12T04:07:52.808Z,79.05
2018-11-12T04:10:21.052Z,79.14
2018-11-12T04:12:48.457Z,79.35
2018-11-12T04:15:18.324Z,79.42
2018-11-12T04:17:45.732Z,79.38
2018-11-12T04:20:17.336Z,79.38
2018-11-12T04:22:51.953Z,79.79
2018-11-12T04:25:19.452Z,79.36
2018-11-12T04:27:46.852Z,79.81
2018-11-12T04:30:15.285Z,79.56
2018-11-12T04:32:43.869Z,79.53
2018-11-12T04:35:11.604Z,79.41
2018-11-12T04:37:39.016Z,79.75
2018-11-12T04:40:06.473Z,79.83
2018-11-12T04:42:33.872Z,79.98
2018-11-12T04:45:01.305Z,79.47
2018-11-12T04:47:28.697Z,79.83
2018-11-12T04:49:56.599Z,79.63
2018-11-12T04:52:24.035Z,79.42
2018-11-12T04:54:51.500Z,79.49
2018-11-12T04:57:18.905Z,79.75
2018-11-12T04:59:46.312Z,79.49
2018-11-12T05:02:13.752Z,79.79
2018-11-12T05:04:41.380Z,79.50
2018-11-12T05:07:08.893Z,79.70
2018-11-12T05:09:36.294Z,79.57
2018-11-12T05:12:03.805Z,79.67
2018-11-12T05:14:31.265Z,79.45
2018-11-12T05:16:58.711Z,79.82
2018-11-12T05:19:26.117Z,79.38
2018-11-12T05:21:53.572Z,79.84
2018-11-12T05:24:20.989Z,79.88
2018-11-12T05:26:48.444Z,79.70
2018-11-12T05:29:15.839Z,79.58
2018-11-12T05:31:43.244Z,79.80
2018-11-12T05:34:10.647Z,79.72
2018-11-12T05:36:38.049Z,79.80
2018-11-12T05:39:05.542Z,79.50
2018-11-12T05:41:32.964Z,79.52
2018-11-12T05:44:00.613Z,79.11
2018-11-12T05:46:28.040Z,79.50
2018-11-12T05:48:55.450Z,79.19
2018-11-12T05:51:22.873Z,79.02
2018-11-12T05:53:50.281Z,78.92
2018-11-12T05:56:17.697Z,79.16
2018-11-12T05:58:45.109Z,78.73
2018-11-12T06:01:12.532Z,79.07
2018-11-12T06:03:39.930Z,78.93
2018-11-12T06:06:07.340Z,78.97
2018-11-12T06:08:34.760Z,79.07
2018-11-12T06:11:02.181Z,79.21
2018-11-12T06:13:29.589Z,79.07
2018-11-12T06:15:56.993Z,78.88
2018-11-12T06:18:24.402Z,79.01
2018-11-12T06:20:51.836Z,79.11
2018-11-12T06:23:19.245Z,79.20
2018-11-12T06:25:46.648Z,79.08
2018-11-12T06:28:14.062Z,79.24
2018-11-12T06:30:41.464Z,78.95
2018-11-12T06:33:08.884Z,78.99
2018-11-12T06:35:36.296Z,78.96
2018-11-12T06:38:03.826Z,79.23
2018-11-12T06:40:31.225Z,78.67
2018-11-12T06:42:58.681Z,78.79
2018-11-12T06:45:27.262Z,78.62
2018-11-12T06:47:55.476Z,78.76
2018-11-12T06:50:24.360Z,78.66
2018-11-12T06:52:51.881Z,78.31
2018-11-12T06:55:19.791Z,78.08
2018-11-12T06:57:47.625Z,78.44
2018-11-12T07:00:16.096Z,77.96
2018-11-12T07:02:43.526Z,77.89
2018-11-12T07:05:11.569Z,77.80
2018-11-12T07:07:39.212Z,78.00
2018-11-12T07:10:06.637Z,77.56
2018-11-12T07:12:34.139Z,77.81
2018-11-12T07:15:01.568Z,77.73
2018-11-12T07:17:28.959Z,77.18
2018-11-12T07:19:56.364Z,76.98
2018-11-12T07:22:23.940Z,76.59
2018-11-12T07:24:51.496Z,76.92
2018-11-12T07:27:19.060Z,76.58
2018-11-12T07:29:46.924Z,76.78
2018-11-12T07:32:14.404Z,76.87
2018-11-12T07:34:41.812Z,76.79
2018-11-12T07:37:09.222Z,76.98
2018-11-12T07:39:36.637Z,77.11
2018-11-12T07:42:04.087Z,76.88
2018-11-12T07:44:31.469Z,76.64
2018-11-12T07:46:58.874Z,76.62
2018-11-12T07:49:26.280Z,76.37
2018-11-12T07:51:53.696Z,76.28
2018-11-12T07:54:21.133Z,75.73
2018-11-12T07:56:48.567Z,75.78
2018-11-12T07:59:16.013Z,75.80
2018-11-12T08:01:43.420Z,75.39
2018-11-12T08:04:11.253Z,74.59
2018-11-12T08:06:38.679Z,73.91
2018-11-12T08:09:06.122Z,73.22
2018-11-12T08:11:33.512Z,72.88
2018-11-12T08:14:00.927Z,72.85
2018-11-12T08:16:28.336Z,72.65
2018-11-12T08:18:55.759Z,73.32
2018-11-12T08:21:23.193Z,73.85
2018-11-12T08:23:50.663Z,73.81
2018-11-12T08:26:18.120Z,73.87
2018-11-12T08:28:45.532Z,73.63
2018-11-12T08:31:13.459Z,73.92
2018-11-12T08:33:40.869Z,74.27
2018-11-12T08:36:08.359Z,74.28
2018-11-12T08:38:35.721Z,74.41
2018-11-12T08:41:03.232Z,74.30
2018-11-12T08:43:30.568Z,74.86
2018-11-12T08:45:58.663Z,74.81
2018-11-12T08:48:26.076Z,75.09
2018-11-12T08:50:53.471Z,74.99
2018-11-12T08:53:20.885Z,74.94
2018-11-12T08:55:48.299Z,75.24
2018-11-12T08:58:16.716Z,75.68
2018-11-12T09:00:43.220Z,75.56
2018-11-12T09:03:10.620Z,75.45
2018-11-12T09:05:38.139Z,75.18
2018-11-12T09:08:05.572Z,75.22
2018-11-12T09:10:34.573Z,75.41
2018-11-12T09:13:02.027Z,75.72
2018-11-12T09:15:29.619Z,75.71
2018-11-12T09:17:56.992Z,75.75
2018-11-12T09:20:25.593Z,75.60
2018-11-12T09:22:53.356Z,75.44
2018-11-12T09:25:22.660Z,75.23
2018-11-12T09:27:50.229Z,75.21
2018-11-12T09:30:19.758Z,75.21
2018-11-12T09:32:47.402Z,75.02
2018-11-12T09:35:16.080Z,74.86
2018-11-12T09:37:44.773Z,75.21
2018-11-12T09:40:12.630Z,75.06
2018-11-12T09:42:40.217Z,75.07
2018-11-12T09:45:07.706Z,74.18
2018-11-12T09:47:35.168Z,73.82
2018-11-12T09:50:02.543Z,72.93
2018-11-12T09:52:30.104Z,72.29
2018-11-12T09:54:57.496Z,72.05
2018-11-12T09:57:24.904Z,71.74
2018-11-12T09:59:52.377Z,71.95
2018-11-12T10:02:20.540Z,71.70
2018-11-12T10:04:48.642Z,72.29
2018-11-12T10:07:15.925Z,72.21
2018-11-12T10:09:44.248Z,71.75
2018-11-12T10:12:12.114Z,71.02
2018-11-12T10:14:40.788Z,70.44
2018-11-12T10:17:06.867Z,70.31
2018-11-12T10:19:32.106Z,69.82
2018-11-12T10:21:59.480Z,69.65
2018-11-12T10:24:26.893Z,69.44
2018-11-12T10:26:54.308Z,68.75
2018-11-12T10:29:21.716Z,68.61
2018-11-12T10:31:49.129Z,67.83
2018-11-12T10:34:16.612Z,67.80
2018-11-12T10:36:43.937Z,67.07
2018-11-12T10:39:11.352Z,67.74
2018-11-12T10:41:38.765Z,66.92
2018-11-12T10:44:06.184Z,67.10
2018-11-12T10:46:33.589Z,67.27
2018-11-12T10:49:00.996Z,67.50
2018-11-12T10:51:28.474Z,66.64
2018-11-12T10:53:55.989Z,66.61
2018-11-12T10:56:23.309Z,66.57
2018-11-12T10:58:50.724Z,66.24
2018-11-12T11:01:18.190Z,66.14
2018-11-12T11:03:45.983Z,65.74
2018-11-12T11:06:13.479Z,65.07
2018-11-12T11:08:40.885Z,65.54
2018-11-12T11:11:08.294Z,65.22
2018-11-12T11:13:35.893Z,65.58
2018-11-12T11:16:03.368Z,64.88
2018-11-12T11:18:30.786Z,64.98
2018-11-12T11:20:58.226Z,65.50
2018-11-12T11:23:25.628Z,65.50
2018-11-12T11:25:53.032Z,65.79
2018-11-12T11:28:20.437Z,65.71
2018-11-12T11:30:47.879Z,66.08
2018-11-12T11:33:15.261Z,67.11
2018-11-12T11:35:42.674Z,66.38
2018-11-12T11:38:10.083Z,66.83
2018-11-12T11:40:37.520Z,66.99
2018-11-12T11:43:04.908Z,67.26
2018-11-12T11:45:32.315Z,67.50
2018-11-12T11:47:59.796Z,67.52
2018-11-12T11:50:27.877Z,67.65
2018-11-12T11:52:55.121Z,67.95
2018-11-12T11:55:23.622Z,67.93
2018-11-12T11:57:51.388Z,67.76
2018-11-12T12:00:20.077Z,67.87
2018-11-12T12:02:48.718Z,68.18
2018-11-12T12:05:16.932Z,68.46
2018-11-12T12:07:44.624Z,68.60
2018-11-12T12:10:12.768Z,68.63
2018-11-12T12:12:40.443Z,68.86
2018-11-12T12:15:07.848Z,68.79
2018-11-12T12:17:35.314Z,68.29
2018-11-12T12:20:02.753Z,68.69
2018-11-12T12:22:30.286Z,68.85
2018-11-12T12:24:57.717Z,68.99
2018-11-12T12:27:25.104Z,68.95
2018-11-12T12:29:52.515Z,69.26
2018-11-12T12:32:19.945Z,69.30
2018-11-12T12:34:47.465Z,69.05
2018-11-12T12:37:14.890Z,68.99
2018-11-12T12:39:42.392Z,69.05
2018-11-12T12:42:09.800Z,69.31
2018-11-12T12:44:37.590Z,69.36
2018-11-12T12:47:05.383Z,69.42
2018-11-12T12:49:33.453Z,70.00
2018-11-12T12:52:00.863Z,69.84
2018-11-12T12:54:28.520Z,69.26
2018-11-12T12:56:56.032Z,69.37
2018-11-12T12:59:23.496Z,69.32
2018-11-12T13:01:51.077Z,69.42
2018-11-12T13:04:18.562Z,69.40
2018-11-12T13:06:46.037Z,69.51
2018-11-12T13:09:13.405Z,69.99
2018-11-12T13:11:40.868Z,69.80
2018-11-12T13:14:08.797Z,69.89
2018-11-12T13:16:36.048Z,69.68
2018-11-12T13:19:03.734Z,70.12
2018-11-12T13:21:31.386Z,70.11
2018-11-12T13:23:59.137Z,70.24
2018-11-12T13:26:26.550Z,69.84
2018-11-12T13:28:53.977Z,70.29
2018-11-12T13:31:21.844Z,70.03
2018-11-12T13:33:49.273Z,70.41
2018-11-12T13:36:16.685Z,70.65
2018-11-12T13:38:44.109Z,70.50
2018-11-12T13:41:12.815Z,70.38
2018-11-12T13:43:40.258Z,70.59
2018-11-12T13:46:07.770Z,70.55
2018-11-12T13:48:35.209Z,70.69
2018-11-12T13:51:02.652Z,70.85
2018-11-12T13:53:30.134Z,70.60
2018-11-12T13:55:57.565Z,70.58
2018-11-12T13:58:24.998Z,70.70
2018-11-12T14:00:52.446Z,71.14
2018-11-12T14:03:19.952Z,71.30
2018-11-12T14:05:47.417Z,71.14
2018-11-12T14:08:14.841Z,71.45
2018-11-12T14:10:42.281Z,71.70
2018-11-12T14:13:09.706Z,71.72
2018-11-12T14:15:37.138Z,71.92
2018-11-12T14:18:04.584Z,71.87
2018-11-12T14:20:32.122Z,71.80
2018-11-12T14:22:59.449Z,72.51
2018-11-12T14:25:27.145Z,72.35
2018-11-12T14:27:55.736Z,72.68
2018-11-12T14:30:24.857Z,72.70
2018-11-12T14:32:52.325Z,72.74
2018-11-12T14:35:19.773Z,72.83
2018-11-12T14:37:47.813Z,73.23
2018-11-12T14:40:16.413Z,73.58
2018-11-12T14:42:43.880Z,73.84
2018-11-12T14:45:13.371Z,73.73
2018-11-12T14:47:40.748Z,73.78
2018-11-12T14:50:08.816Z,73.94
2018-11-12T14:52:36.352Z,74.08
2018-11-12T14:55:04.283Z,74.42
2018-11-12T14:57:31.674Z,73.98
2018-11-12T14:59:59.457Z,74.25
2018-11-12T15:02:27.413Z,74.09
2018-11-12T15:04:54.974Z,74.27
2018-11-12T15:07:22.737Z,74.27
2018-11-12T15:09:50.166Z,74.40
2018-11-12T15:12:17.591Z,74.46
2018-11-12T15:14:45.162Z,74.67
2018-11-12T15:17:12.441Z,74.86
2018-11-12T15:19:39.865Z,75.14
2018-11-12T15:22:07.314Z,75.41
2018-11-12T15:24:35.240Z,75.18
2018-11-12T15:27:03.121Z,75.19
2018-11-12T15:29:30.574Z,75.32
2018-11-12T15:31:57.976Z,75.82
2018-11-12T15:34:25.392Z,76.05
2018-11-12T15:36:52.960Z,76.24
2018-11-12T15:39:20.255Z,76.60
2018-11-12T15:41:47.669Z,76.37
2018-11-12T15:44:15.102Z,76.40
2018-11-12T15:46:42.538Z,76.56
2018-11-12T15:49:09.965Z,76.58
2018-11-12T15:51:37.421Z,76.28
2018-11-12T15:54:04.866Z,76.50
2018-11-12T15:56:32.288Z,76.54
2018-11-12T15:58:59.700Z,76.41
2018-11-12T16:01:27.406Z,75.25
2018-11-12T16:03:54.898Z,75.33
2018-11-12T16:06:22.364Z,74.84
2018-11-12T16:08:49.725Z,74.17
2018-11-12T16:11:17.137Z,73.81
2018-11-12T16:13:44.656Z,73.85
2018-11-12T16:16:12.082Z,74.00
2018-11-12T16:18:39.493Z,73.65
2018-11-12T16:21:06.908Z,74.43
2018-11-12T16:23:34.328Z,73.85
2018-11-12T16:26:01.898Z,74.15
2018-11-12T16:28:29.317Z,73.88
2018-11-12T16:30:56.730Z,73.65
2018-11-12T16:33:24.168Z,73.76
2018-11-12T16:35:51.586Z,73.73
2018-11-12T16:38:19.095Z,73.61
2018-11-12T16:40:46.582Z,73.39
2018-11-12T16:43:14.093Z,73.33
2018-11-12T16:45:41.573Z,73.78
2018-11-12T16:48:08.988Z,73.84
2018-11-12T16:50:37.175Z,74.18
2018-11-12T16:53:04.613Z,74.02
2018-11-12T16:55:32.025Z,74.34
2018-11-12T16:57:59.436Z,74.29
2018-11-12T17:00:26.853Z,74.36
2018-11-12T17:02:54.264Z,74.60
2018-11-12T17:05:23.045Z,73.77
2018-11-12T17:07:50.478Z,73.94
2018-11-12T17:10:19.087Z,74.01
2018-11-12T17:12:47.269Z,73.90
2018-11-12T17:15:15.137Z,74.21
2018-11-12T17:17:42.648Z,73.93
2018-11-12T17:20:10.692Z,74.46
2018-11-12T17:22:38.332Z,74.01
2018-11-12T17:25:05.781Z,74.11
2018-11-12T17:27:33.352Z,74.11
2018-11-12T17:30:00.937Z,74.30
2018-11-12T17:32:28.564Z,74.33
2018-11-12T17:34:55.994Z,74.48
2018-11-12T17:37:23.423Z,74.47
2018-11-12T17:39:50.920Z,74.93
2018-11-12T17:42:18.353Z,74.19
2018-11-12T17:44:45.774Z,74.59
2018-11-12T17:47:13.217Z,74.47
2018-11-12T17:49:40.656Z,74.92
2018-11-12T17:52:08.066Z,74.91
2018-11-12T17:54:35.572Z,74.93
2018-11-12T17:57:02.935Z,75.02
2018-11-12T17:59:30.344Z,75.15
2018-11-12T18:01:57.868Z,75.23
2018-11-12T18:04:25.313Z,75.65
2018-11-12T18:06:52.735Z,75.72
2018-11-12T18:09:20.162Z,75.59
2018-11-12T18:11:47.582Z,75.76
2018-11-12T18:14:15.025Z,75.73
2018-11-12T18:16:42.512Z,75.91
2018-11-12T18:19:09.984Z,76.01
2018-11-12T18:21:37.545Z,75.90
2018-11-12T18:24:04.964Z,76.00
2018-11-12T18:26:32.387Z,76.10
2018-11-12T18:28:59.987Z,75.90
2018-11-12T18:31:27.493Z,76.36
2018-11-12T18:33:54.808Z,75.80
2018-11-12T18:36:22.267Z,75.92
2018-11-12T18:38:49.748Z,76.33
2018-11-12T18:41:17.188Z,76.17
2018-11-12T18:43:44.705Z,75.92
2018-11-12T18:46:12.041Z,75.61
2018-11-12T18:48:39.524Z,76.16
2018-11-12T18:51:06.934Z,75.50
2018-11-12T18:53:34.345Z,75.59
2018-11-12T18:56:01.821Z,75.58
2018-11-12T18:58:29.894Z,75.85
2018-11-12T19:00:57.309Z,75.51
2018-11-12T19:03:24.724Z,76.24
2018-11-12T19:05:52.150Z,76.05
2018-11-12T19:08:19.588Z,75.91
2018-11-12T19:10:47.054Z,76.39
2018-11-12T19:13:14.433Z,76.08
2018-11-12T19:15:41.916Z,75.97
2018-11-12T19:18:10.771Z,75.97
2018-11-12T19:20:38.185Z,75.99
2018-11-12T19:23:05.606Z,76.32
2018-11-12T19:25:33.036Z,75.93
2018-11-12T19:28:00.476Z,76.04
2018-11-12T19:30:28.698Z,75.64
2018-11-12T19:32:56.150Z,76.04
2018-11-12T19:35:25.054Z,75.94
2018-11-12T19:37:52.470Z,76.00
2018-11-12T19:40:21.155Z,75.92
2018-11-12T19:42:49.556Z,75.89
2018-11-12T19:45:17.228Z,76.09
2018-11-12T19:47:44.649Z,76.07
2018-11-12T19:50:14.193Z,75.59
2018-11-12T19:52:42.778Z,75.89
2018-11-12T19:55:10.230Z,76.00
2018-11-12T19:57:37.636Z,76.21
2018-11-12T20:00:05.074Z,76.62
2018-11-12T20:02:33.200Z,76.44
2018-11-12T20:05:00.624Z,76.67
2018-11-12T20:07:28.033Z,76.60
2018-11-12T20:09:55.498Z,76.43
2018-11-12T20:12:22.964Z,76.42
2018-11-12T20:14:50.437Z,76.78
2018-11-12T20:17:18.090Z,76.88
2018-11-12T20:19:45.548Z,76.54
2018-11-12T20:22:13.071Z,76.45
2018-11-12T20:24:40.508Z,76.04
2018-11-12T20:27:07.920Z,76.48
2018-11-12T20:29:35.387Z,76.26
2018-11-12T20:32:02.883Z,76.31
2018-11-12T20:34:30.318Z,76.45
2018-11-12T20:36:57.708Z,75.84
2018-11-12T20:39:25.109Z,76.08
2018-11-12T20:41:52.520Z,76.13
2018-11-12T20:44:19.937Z,76.08
2018-11-12T20:46:47.351Z,76.24
2018-11-12T20:49:14.781Z,75.89
2018-11-12T20:51:42.293Z,75.99
2018-11-12T20:54:09.716Z,76.64
2018-11-12T20:56:37.138Z,76.67
2018-11-12T20:59:04.552Z,76.33
2018-11-12T21:01:31.972Z,76.31
2018-11-12T21:03:59.397Z,76.50
2018-11-12T21:06:26.929Z,76.29
2018-11-12T21:08:54.417Z,76.44
2018-11-12T21:11:21.905Z,76.36
2018-11-12T21:13:49.260Z,76.32
2018-11-12T21:16:16.710Z,75.84
2018-11-12T21:18:44.101Z,75.95
2018-11-12T21:21:11.568Z,75.79
2018-11-12T21:23:39.042Z,75.41
2018-11-12T21:26:06.488Z,75.84
2018-11-12T21:28:33.919Z,75.74
2018-11-12T21:31:01.342Z,75.33
2018-11-12T21:33:28.753Z,75.35
2018-11-12T21:35:56.168Z,75.41
2018-11-12T21:38:23.585Z,75.25
2018-11-12T21:40:50.999Z,75.18
2018-11-12T21:43:18.514Z,74.80
2018-11-12T21:45:45.954Z,75.03
2018-11-12T21:48:13.412Z,75.10
2018-11-12T21:50:40.829Z,74.92
2018-11-12T21:53:08.240Z,75.13
2018-11-12T21:55:35.678Z,75.01
2018-11-12T21:58:03.109Z,74.92
2018-11-12T22:00:30.537Z,74.71
2018-11-12T22:03:00.229Z,74.47
2018-11-12T22:05:28.446Z,74.68
2018-11-12T22:07:55.856Z,74.60
2018-11-12T22:10:23.281Z,74.90
2018-11-12T22:12:51.433Z,74.95
2018-11-12T22:15:18.852Z,74.90
2018-11-12T22:17:46.272Z,75.00
2018-11-12T22:20:14.940Z,74.52
2018-11-12T22:22:42.904Z,74.99
2018-11-12T22:25:12.032Z,75.04
2018-11-12T22:27:40.257Z,75.22
2018-11-12T22:30:07.605Z,75.29
2018-11-12T22:32:35.013Z,75.01
2018-11-12T22:35:02.431Z,75.34
2018-11-12T22:37:29.920Z,75.47
2018-11-12T22:39:57.274Z,75.23
2018-11-12T22:42:24.695Z,75.34
2018-11-12T22:44:52.629Z,75.27
2018-11-12T22:47:20.041Z,75.60
2018-11-12T22:49:47.525Z,75.45
2018-11-12T22:52:14.983Z,75.03
2018-11-12T22:54:42.430Z,75.00
2018-11-12T22:57:09.866Z,75.19
2018-11-12T22:59:37.476Z,74.90
2018-11-12T23:02:04.881Z,74.65
2018-11-12T23:04:32.998Z,74.61
2018-11-12T23:07:00.408Z,75.12
2018-11-12T23:09:27.816Z,74.94
2018-11-12T23:11:55.220Z,75.01
2018-11-12T23:14:22.652Z,75.54
2018-11-12T23:16:50.057Z,75.25
2018-11-12T23:19:17.456Z,75.23
2018-11-12T23:21:44.877Z,75.51
2018-11-12T23:24:12.293Z,75.31
2018-11-12T23:26:39.706Z,75.50
2018-11-12T23:29:07.333Z,74.97
2018-11-12T23:31:34.815Z,74.99
2018-11-12T23:34:02.264Z,74.90
2018-11-12T23:36:29.729Z,75.07
2018-11-12T23:38:57.147Z,74.90
2018-11-12T23:41:24.569Z,74.58
2018-11-12T23:43:52.003Z,74.94
2018-11-12T23:46:19.457Z,75.34
2018-11-12T23:48:46.870Z,75.11
2018-11-12T23:51:14.383Z,75.52
2018-11-12T23:53:41.864Z,74.98
2018-11-12T23:56:09.292Z,75.21
2018-11-12T23:58:36.704Z,75.25
